Time;durP1;ratioP1;P1;durP2;ratioP2;P2;SDS_P1;SDS_P2;PMS_P1;PMS_P2;Temp;Humidity;BMP_temperature;BMP_pressure;BME280_temperature;BME280_humidity;BME280_pressure;Samples;Min_cycle;Max_cycle;Signal;HPM_P1;HPM_P2
2024/02/14 00:01:48;;;;;;;3.70;2.10;;;5.60;99.90;;;;;;493980;241;28042;-72
2024/02/14 00:03:49;;;;;;;4.25;2.40;;;5.60;99.90;;;;;;493929;241;27518;-70
2024/02/14 00:05:52;;;;;;;2.42;2.22;;;5.60;99.90;;;;;;493940;237;27465;-70
2024/02/14 00:07:51;;;;;;;4.22;2.35;;;5.60;99.90;;;;;;493864;241;27460;-73
2024/02/14 00:09:53;;;;;;;2.80;2.20;;;5.60;99.90;;;;;;493977;241;27518;-73
2024/02/14 00:11:54;;;;;;;3.28;2.00;;;5.60;99.90;;;;;;493972;241;27610;-70
2024/02/14 00:13:56;;;;;;;5.70;2.17;;;5.70;99.90;;;;;;493965;241;28044;-71
2024/02/14 00:15:56;;;;;;;3.17;2.00;;;5.70;99.90;;;;;;493944;241;28163;-73
2024/02/14 00:17:57;;;;;;;3.35;1.95;;;5.60;99.90;;;;;;493960;241;27602;-70
2024/02/14 00:19:59;;;;;;;4.22;2.10;;;5.70;99.90;;;;;;493973;241;27503;-70
2024/02/14 00:22:00;;;;;;;3.75;2.12;;;5.70;99.90;;;;;;493938;241;27482;-70
2024/02/14 00:24:01;;;;;;;5.68;2.20;;;5.70;99.90;;;;;;493839;241;27568;-72
2024/02/14 00:26:03;;;;;;;4.10;1.90;;;5.70;99.90;;;;;;493941;241;27575;-74
2024/02/14 00:28:05;;;;;;;2.83;2.08;;;5.70;99.90;;;;;;493972;241;27921;-70
2024/02/14 00:30:05;;;;;;;7.62;2.40;;;5.70;99.90;;;;;;493860;241;28002;-73
2024/02/14 00:32:06;;;;;;;4.25;2.60;;;5.70;99.90;;;;;;493937;241;27465;-73
2024/02/14 00:34:08;;;;;;;4.00;2.30;;;5.70;99.90;;;;;;493962;241;27474;-73
2024/02/14 00:36:09;;;;;;;2.30;2.20;;;5.70;99.90;;;;;;493910;241;27498;-74
2024/02/14 00:38:10;;;;;;;2.95;2.35;;;5.70;99.90;;;;;;493909;241;27558;-72
2024/02/14 00:40:11;;;;;;;3.58;2.03;;;5.60;99.90;;;;;;493899;241;27658;-73
2024/02/14 00:42:13;;;;;;;4.62;2.30;;;5.60;99.90;;;;;;493956;241;27870;-75
2024/02/14 00:44:16;;;;;;;3.75;2.00;;;5.60;99.90;;;;;;493762;241;27471;-73
2024/02/14 00:46:15;;;;;;;2.72;2.20;;;5.50;99.90;;;;;;493749;241;27649;-73
2024/02/14 00:48:16;;;;;;;3.65;2.40;;;5.50;99.90;;;;;;493938;241;27929;-71
2024/02/14 00:50:18;;;;;;;5.32;2.17;;;5.40;99.90;;;;;;493968;241;27924;-71
2024/02/14 00:52:21;;;;;;;3.47;2.00;;;5.40;99.90;;;;;;493964;241;27620;-70
2024/02/14 00:54:20;;;;;;;5.15;2.53;;;5.30;99.90;;;;;;493812;237;27549;-73
2024/02/14 00:56:23;;;;;;;2.80;2.30;;;5.30;99.90;;;;;;493835;241;27544;-70
2024/02/14 00:58:23;;;;;;;14.55;2.25;;;5.30;99.90;;;;;;493801;241;27572;-70
2024/02/14 01:00:24;;;;;;;6.87;2.20;;;5.30;99.90;;;;;;493983;241;27498;-70
2024/02/14 01:02:26;;;;;;;4.80;2.10;;;5.40;99.90;;;;;;493967;241;27555;-71
2024/02/14 01:04:26;;;;;;;4.53;2.10;;;5.30;99.90;;;;;;493931;237;27965;-70
2024/02/14 01:06:28;;;;;;;6.32;2.30;;;5.30;99.90;;;;;;493887;241;27980;-70
2024/02/14 01:08:29;;;;;;;6.28;1.90;;;5.30;99.90;;;;;;493972;241;27643;-71
2024/02/14 01:10:30;;;;;;;3.42;2.10;;;5.30;99.90;;;;;;493999;241;27567;-70
2024/02/14 01:12:31;;;;;;;11.90;2.58;;;5.30;99.90;;;;;;493971;241;27589;-70
2024/02/14 01:14:33;;;;;;;6.87;2.20;;;5.30;99.90;;;;;;493988;241;27479;-70
2024/02/14 01:16:34;;;;;;;4.62;2.30;;;5.30;99.90;;;;;;493909;241;27495;-70
2024/02/14 01:18:35;;;;;;;4.15;2.12;;;5.40;99.90;;;;;;493959;241;27518;-73
2024/02/14 01:20:37;;;;;;;7.75;2.45;;;5.50;99.90;;;;;;493984;241;27938;-70
2024/02/14 01:22:38;;;;;;;3.42;2.30;;;5.50;99.90;;;;;;493955;241;28024;-73
2024/02/14 01:24:41;;;;;;;5.12;2.75;;;5.40;99.90;;;;;;493943;241;27497;-71
2024/02/14 01:26:40;;;;;;;5.78;2.47;;;5.40;99.90;;;;;;493793;241;27556;-72
2024/02/14 01:28:44;;;;;;;2.20;1.90;;;5.40;99.90;;;;;;493997;241;27534;-72
2024/02/14 01:30:43;;;;;;;3.20;2.65;;;5.30;99.90;;;;;;493817;241;27460;-72
2024/02/14 01:32:44;;;;;;;3.75;2.53;;;5.40;99.90;;;;;;493959;241;27597;-71
2024/02/14 01:34:45;;;;;;;7.62;2.42;;;5.40;99.90;;;;;;493984;241;27525;-74
2024/02/14 01:36:47;;;;;;;4.80;2.25;;;5.50;99.90;;;;;;493943;241;27931;-71
2024/02/14 01:38:48;;;;;;;3.53;2.45;;;5.50;99.90;;;;;;493994;241;28077;-72
2024/02/14 01:40:49;;;;;;;4.65;2.70;;;5.40;99.90;;;;;;493955;241;27476;-71
2024/02/14 01:42:52;;;;;;;6.18;3.47;;;5.50;99.90;;;;;;493949;237;27506;-72
2024/02/14 01:44:53;;;;;;;2.92;2.10;;;5.50;99.90;;;;;;493881;241;27710;-73
2024/02/14 01:46:53;;;;;;;4.50;2.70;;;5.50;99.90;;;;;;493783;241;27493;-72
2024/02/14 01:48:55;;;;;;;3.45;2.25;;;5.50;99.90;;;;;;493920;241;27592;-72
2024/02/14 01:50:56;;;;;;;3.95;2.30;;;5.50;99.90;;;;;;493856;241;28761;-72
2024/02/14 01:52:57;;;;;;;3.05;2.80;;;5.60;99.90;;;;;;493977;241;28043;-72
2024/02/14 01:54:58;;;;;;;4.20;2.20;;;5.60;99.90;;;;;;493957;241;27495;-73
2024/02/14 01:56:59;;;;;;;3.78;2.40;;;5.70;99.90;;;;;;493917;241;27466;-72
2024/02/14 01:59:00;;;;;;;5.25;2.45;;;5.70;99.90;;;;;;493928;241;27582;-71
2024/02/14 02:01:03;;;;;;;11.70;2.72;;;5.70;99.90;;;;;;494009;241;27957;-74
2024/02/14 02:03:03;;;;;;;6.85;2.50;;;5.70;99.90;;;;;;493911;241;27552;-72
2024/02/14 02:05:04;;;;;;;3.22;2.22;;;5.70;99.90;;;;;;493874;241;28097;-72
2024/02/14 02:07:05;;;;;;;5.18;2.67;;;5.70;99.90;;;;;;493815;241;28116;-72
2024/02/14 02:09:07;;;;;;;7.18;2.80;;;5.70;99.90;;;;;;493753;241;27506;-71
2024/02/14 02:11:08;;;;;;;3.22;2.50;;;5.60;99.90;;;;;;493984;241;27640;-73
2024/02/14 02:13:09;;;;;;;3.30;2.00;;;5.70;99.90;;;;;;493920;241;27535;-72
2024/02/14 02:15:12;;;;;;;3.95;2.45;;;5.70;99.90;;;;;;493930;241;27546;-72
2024/02/14 02:17:12;;;;;;;5.35;2.30;;;5.70;99.90;;;;;;493752;241;27476;-71
2024/02/14 02:19:14;;;;;;;8.27;2.67;;;5.70;99.90;;;;;;493978;241;27922;-71
2024/02/14 02:21:14;;;;;;;4.68;2.53;;;5.80;99.90;;;;;;493884;241;27974;-72
2024/02/14 02:23:15;;;;;;;3.42;2.60;;;5.80;99.90;;;;;;493946;241;27497;-72
2024/02/14 02:25:17;;;;;;;4.20;2.00;;;5.80;99.90;;;;;;493903;241;27526;-72
2024/02/14 02:27:18;;;;;;;3.70;2.60;;;5.80;99.90;;;;;;493922;241;27494;-74
2024/02/14 02:29:19;;;;;;;4.95;2.55;;;5.80;99.90;;;;;;493966;241;27462;-72
2024/02/14 02:31:21;;;;;;;6.07;2.40;;;5.80;99.90;;;;;;493922;241;27534;-72
2024/02/14 02:33:22;;;;;;;9.48;2.30;;;5.80;99.90;;;;;;493912;241;27555;-72
2024/02/14 02:35:24;;;;;;;4.75;2.35;;;5.80;99.90;;;;;;493994;237;27918;-72
2024/02/14 02:37:24;;;;;;;2.95;2.12;;;5.80;99.90;;;;;;493913;241;28000;-72
2024/02/14 02:39:26;;;;;;;5.20;2.30;;;5.90;99.90;;;;;;493953;241;27521;-72
2024/02/14 02:41:27;;;;;;;3.80;2.35;;;5.90;99.90;;;;;;493923;237;27621;-72
2024/02/14 02:43:28;;;;;;;7.05;2.12;;;5.90;99.90;;;;;;493969;241;27498;-73
2024/02/14 02:45:29;;;;;;;4.65;2.10;;;5.90;99.90;;;;;;493984;241;27480;-72
2024/02/14 02:47:31;;;;;;;5.22;2.45;;;5.90;99.90;;;;;;493882;241;27506;-72
2024/02/14 02:49:32;;;;;;;4.65;2.28;;;5.90;99.90;;;;;;493943;241;27896;-72
2024/02/14 02:51:33;;;;;;;4.53;2.35;;;5.90;99.90;;;;;;493949;241;28066;-72
2024/02/14 02:53:35;;;;;;;4.50;2.22;;;5.90;99.90;;;;;;493968;241;27568;-75
2024/02/14 02:55:37;;;;;;;5.80;2.65;;;6.00;99.90;;;;;;493954;241;27623;-72
2024/02/14 02:57:39;;;;;;;3.95;2.60;;;6.00;99.90;;;;;;493841;241;27673;-72
2024/02/14 02:59:42;;;;;;;2.60;2.20;;;6.00;99.90;;;;;;493774;241;27544;-72
2024/02/14 03:01:40;;;;;;;5.43;2.67;;;6.10;99.90;;;;;;493631;241;27562;-72
2024/02/14 03:03:42;;;;;;;4.53;2.70;;;6.10;99.90;;;;;;493811;241;28005;-73
2024/02/14 03:05:44;;;;;;;5.45;2.65;;;6.10;99.90;;;;;;493826;241;28028;-72
2024/02/14 03:07:45;;;;;;;5.47;4.00;;;6.10;99.90;;;;;;493710;241;27648;-72
2024/02/14 03:09:45;;;;;;;5.75;3.15;;;6.10;99.90;;;;;;493905;241;27543;-73
2024/02/14 03:11:46;;;;;;;4.10;2.55;;;6.10;99.90;;;;;;493968;241;28008;-72
2024/02/14 03:13:48;;;;;;;4.28;2.62;;;6.20;99.90;;;;;;493929;241;27531;-73
2024/02/14 03:15:49;;;;;;;7.90;2.22;;;6.20;99.90;;;;;;493832;241;27564;-72
2024/02/14 03:17:50;;;;;;;4.85;2.62;;;6.20;99.90;;;;;;493902;241;27601;-71
2024/02/14 03:19:51;;;;;;;3.87;2.30;;;6.20;99.90;;;;;;493965;241;27503;-73
2024/02/14 03:21:52;;;;;;;6.20;2.50;;;6.20;99.90;;;;;;493949;241;27454;-72
2024/02/14 03:23:53;;;;;;;3.17;2.50;;;6.20;99.90;;;;;;493984;241;28843;-72
2024/02/14 03:25:55;;;;;;;8.90;2.90;;;6.20;99.90;;;;;;493982;241;28842;-71
2024/02/14 03:27:56;;;;;;;4.50;2.80;;;6.20;99.90;;;;;;493888;241;27505;-72
2024/02/14 03:30:02;;;;;;;5.23;2.33;;;6.30;99.90;;;;;;493912;241;28919;-72
2024/02/14 03:31:59;;;;;;;7.95;2.30;;;6.30;99.90;;;;;;493540;241;28797;-72
2024/02/14 03:34:00;;;;;;;6.15;2.65;;;6.30;99.90;;;;;;493891;241;27607;-72
2024/02/14 03:36:01;;;;;;;7.47;2.40;;;6.30;99.90;;;;;;493937;241;27850;-72
2024/02/14 03:38:03;;;;;;;7.75;2.65;;;6.30;99.90;;;;;;493999;241;27486;-72
2024/02/14 03:40:04;;;;;;;2.73;2.03;;;6.30;99.90;;;;;;493890;241;28000;-72
2024/02/14 03:42:07;;;;;;;4.35;2.70;;;6.30;99.90;;;;;;493931;237;29355;-71
2024/02/14 03:44:06;;;;;;;6.28;2.20;;;6.40;99.90;;;;;;493808;241;27517;-75
2024/02/14 03:46:07;;;;;;;4.57;2.10;;;6.30;99.90;;;;;;493899;237;27513;-73
2024/02/14 03:48:11;;;;;;;8.75;2.50;;;6.40;99.90;;;;;;493915;237;27463;-72
2024/02/14 03:50:10;;;;;;;3.90;2.00;;;6.40;99.90;;;;;;493751;237;27533;-72
2024/02/14 03:52:11;;;;;;;4.85;2.50;;;6.40;99.90;;;;;;493966;241;27584;-72
2024/02/14 03:54:12;;;;;;;4.93;2.33;;;6.40;99.90;;;;;;493954;241;28053;-72
2024/02/14 03:56:16;;;;;;;8.73;2.05;;;6.40;99.90;;;;;;493795;241;27993;-72
2024/02/14 03:58:16;;;;;;;2.70;2.50;;;6.50;99.90;;;;;;493793;241;27463;-71
2024/02/14 04:00:16;;;;;;;2.20;1.97;;;6.40;99.90;;;;;;493843;241;27588;-72
2024/02/14 04:02:18;;;;;;;7.20;2.60;;;6.40;99.90;;;;;;493969;241;28850;-74
2024/02/14 04:04:19;;;;;;;5.57;2.40;;;6.40;99.90;;;;;;493921;241;27477;-72
2024/02/14 04:06:20;;;;;;;5.87;2.72;;;6.40;99.90;;;;;;493887;241;27552;-72
2024/02/14 04:08:21;;;;;;;8.18;2.65;;;6.40;99.90;;;;;;493951;241;27914;-72
2024/02/14 04:10:22;;;;;;;4.28;2.45;;;6.40;99.90;;;;;;493927;241;27929;-72
2024/02/14 04:12:24;;;;;;;2.03;1.92;;;6.40;99.90;;;;;;493961;241;27497;-72
2024/02/14 04:14:25;;;;;;;2.55;2.20;;;6.40;99.90;;;;;;493988;241;27561;-72
2024/02/14 04:16:26;;;;;;;9.02;2.40;;;6.40;99.90;;;;;;493924;241;27553;-72
2024/02/14 04:18:28;;;;;;;4.15;2.65;;;6.40;99.90;;;;;;493947;241;27529;-72
2024/02/14 04:20:29;;;;;;;2.67;2.20;;;6.40;99.90;;;;;;493986;241;27464;-72
2024/02/14 04:22:30;;;;;;;3.72;2.30;;;6.40;99.90;;;;;;493978;241;28020;-72
2024/02/14 04:24:31;;;;;;;3.55;2.15;;;6.40;99.90;;;;;;493962;241;27450;-71
2024/02/14 04:26:32;;;;;;;4.62;2.35;;;6.40;99.90;;;;;;493878;237;27535;-72
2024/02/14 04:28:34;;;;;;;2.33;2.10;;;6.30;99.90;;;;;;494005;241;27881;-73
2024/02/14 04:30:36;;;;;;;4.25;2.20;;;6.30;99.90;;;;;;493942;241;27563;-71
2024/02/14 04:32:36;;;;;;;4.82;2.47;;;6.20;99.90;;;;;;493872;239;27541;-72
2024/02/14 04:34:38;;;;;;;6.30;2.60;;;6.20;99.90;;;;;;493951;241;27467;-71
2024/02/14 04:36:40;;;;;;;4.97;2.62;;;6.20;99.90;;;;;;493871;241;27551;-71
2024/02/14 04:38:40;;;;;;;4.82;2.67;;;6.20;99.90;;;;;;493935;241;28086;-72
2024/02/14 04:40:41;;;;;;;5.05;2.45;;;6.20;99.90;;;;;;493972;241;28002;-71
2024/02/14 04:42:43;;;;;;;3.60;2.33;;;6.20;99.90;;;;;;493941;241;27489;-71
2024/02/14 04:44:44;;;;;;;4.18;2.45;;;6.10;99.90;;;;;;493962;241;28868;-71
2024/02/14 04:46:45;;;;;;;2.62;2.05;;;6.10;99.90;;;;;;493902;241;27475;-71
2024/02/14 04:48:46;;;;;;;4.97;2.28;;;6.20;99.90;;;;;;493976;241;27536;-73
2024/02/14 04:50:48;;;;;;;3.57;2.27;;;6.20;99.90;;;;;;493972;241;27478;-72
2024/02/14 04:52:49;;;;;;;7.30;2.60;;;6.20;99.90;;;;;;493933;241;28939;-72
2024/02/14 04:54:50;;;;;;;5.65;2.50;;;6.20;99.90;;;;;;493963;241;28029;-74
2024/02/14 04:56:51;;;;;;;9.23;2.83;;;6.20;99.90;;;;;;493918;241;27486;-72
2024/02/14 04:58:53;;;;;;;4.30;2.50;;;6.10;99.90;;;;;;493930;241;27529;-72
2024/02/14 05:00:54;;;;;;;5.97;2.47;;;6.20;99.90;;;;;;493831;241;28432;-74
2024/02/14 05:02:57;;;;;;;3.10;2.42;;;6.20;99.90;;;;;;493848;241;27942;-71
2024/02/14 05:04:57;;;;;;;2.50;2.30;;;6.20;99.90;;;;;;493901;241;27988;-72
2024/02/14 05:06:58;;;;;;;2.00;1.70;;;6.20;99.90;;;;;;493944;241;27552;-73
2024/02/14 05:09:00;;;;;;;6.32;2.50;;;6.20;99.90;;;;;;494007;241;27462;-71
2024/02/14 05:11:01;;;;;;;3.03;2.00;;;6.20;99.90;;;;;;493983;241;27517;-72
2024/02/14 05:13:02;;;;;;;6.80;2.60;;;6.20;99.90;;;;;;493952;237;27502;-71
2024/02/14 05:15:04;;;;;;;6.12;2.50;;;6.20;99.90;;;;;;493993;241;27933;-72
2024/02/14 05:17:05;;;;;;;4.80;2.20;;;6.30;99.90;;;;;;493892;241;27542;-72
2024/02/14 05:19:06;;;;;;;4.65;2.10;;;6.30;99.90;;;;;;493967;241;27467;-73
2024/02/14 05:21:07;;;;;;;5.43;2.50;;;6.30;99.90;;;;;;493936;241;27520;-72
2024/02/14 05:23:10;;;;;;;3.80;2.83;;;6.30;99.90;;;;;;493934;241;27858;-73
2024/02/14 05:25:10;;;;;;;7.43;2.60;;;6.30;99.90;;;;;;493850;241;27478;-72
2024/02/14 05:27:11;;;;;;;5.82;2.67;;;6.30;99.90;;;;;;493920;241;29378;-72
2024/02/14 05:29:12;;;;;;;6.30;2.75;;;6.30;99.90;;;;;;493980;241;28030;-72
2024/02/14 05:31:14;;;;;;;7.00;3.20;;;6.40;99.90;;;;;;493968;241;27494;-71
2024/02/14 05:33:15;;;;;;;6.18;2.45;;;6.30;99.90;;;;;;494018;241;27592;-72
2024/02/14 05:35:16;;;;;;;4.40;2.83;;;6.30;99.90;;;;;;493993;241;27490;-72
2024/02/14 05:37:17;;;;;;;12.37;3.20;;;6.30;99.90;;;;;;493958;241;27505;-72
2024/02/14 05:39:18;;;;;;;6.80;2.83;;;6.20;99.90;;;;;;494001;241;28886;-71
2024/02/14 05:41:20;;;;;;;12.55;3.33;;;6.20;99.90;;;;;;494025;241;27939;-72
2024/02/14 05:43:21;;;;;;;5.40;3.15;;;6.20;99.90;;;;;;493946;241;28080;-72
2024/02/14 05:45:22;;;;;;;12.77;3.35;;;6.20;99.90;;;;;;493965;241;27465;-72
2024/02/14 05:47:25;;;;;;;5.32;3.53;;;6.20;99.90;;;;;;493906;237;27612;-71
2024/02/14 05:49:25;;;;;;;3.90;2.92;;;6.10;99.90;;;;;;493892;237;27850;-73
2024/02/14 05:51:26;;;;;;;3.15;2.70;;;6.10;99.90;;;;;;493973;237;27500;-71
2024/02/14 05:53:27;;;;;;;6.13;2.97;;;6.10;99.90;;;;;;493980;241;27595;-72
2024/02/14 05:55:28;;;;;;;6.60;2.90;;;6.10;99.90;;;;;;493946;241;29331;-72
2024/02/14 05:57:30;;;;;;;8.65;4.70;;;6.10;99.90;;;;;;493887;237;27932;-72
2024/02/14 05:59:32;;;;;;;7.20;3.35;;;6.10;99.90;;;;;;493990;241;27502;-72
2024/02/14 06:01:32;;;;;;;3.62;3.30;;;6.10;99.90;;;;;;493930;241;27590;-71
2024/02/14 06:03:34;;;;;;;4.40;3.20;;;6.10;99.90;;;;;;493892;241;27639;-72
2024/02/14 06:05:35;;;;;;;7.78;3.75;;;6.10;99.90;;;;;;493968;241;27581;-72
2024/02/14 06:07:36;;;;;;;3.62;3.15;;;6.10;99.90;;;;;;493940;241;27562;-72
2024/02/14 06:09:37;;;;;;;5.28;3.42;;;6.10;99.90;;;;;;493967;241;28096;-72
2024/02/14 06:11:39;;;;;;;6.72;3.40;;;6.10;99.90;;;;;;493909;241;27534;-71
2024/02/14 06:13:40;;;;;;;10.32;4.03;;;6.10;99.90;;;;;;493920;241;27587;-71
2024/02/14 06:15:41;;;;;;;4.47;3.65;;;6.10;99.90;;;;;;493995;241;27886;-73
2024/02/14 06:17:42;;;;;;;5.55;3.28;;;6.10;99.90;;;;;;493934;241;27469;-72
2024/02/14 06:19:44;;;;;;;8.60;3.65;;;6.10;99.90;;;;;;493952;241;27616;-72
2024/02/14 06:21:45;;;;;;;6.55;3.20;;;6.10;99.90;;;;;;493964;241;27915;-71
2024/02/14 06:23:46;;;;;;;7.25;4.62;;;6.10;99.90;;;;;;493995;241;28077;-71
2024/02/14 06:25:47;;;;;;;5.72;4.03;;;6.10;99.90;;;;;;493904;241;27509;-72
2024/02/14 06:27:49;;;;;;;12.65;3.95;;;6.20;99.90;;;;;;493787;241;27645;-72
2024/02/14 06:29:50;;;;;;;9.73;3.65;;;6.10;99.90;;;;;;493862;241;27601;-72
2024/02/14 06:31:51;;;;;;;10.43;4.40;;;6.20;99.90;;;;;;493917;237;27492;-71
2024/02/14 06:33:52;;;;;;;8.50;4.25;;;6.10;99.90;;;;;;493919;241;27915;-71
2024/02/14 06:35:54;;;;;;;9.40;3.80;;;6.20;99.90;;;;;;493978;241;28017;-72
2024/02/14 06:37:55;;;;;;;5.30;3.72;;;6.20;99.90;;;;;;493840;241;27465;-71
2024/02/14 06:39:56;;;;;;;14.15;4.10;;;6.10;99.90;;;;;;493905;241;27502;-72
2024/02/14 06:41:57;;;;;;;6.82;4.35;;;6.10;99.90;;;;;;493970;241;27652;-73
2024/02/14 06:43:59;;;;;;;5.37;3.72;;;6.10;99.90;;;;;;493966;241;27959;-72
2024/02/14 06:46:00;;;;;;;4.07;3.60;;;6.20;99.90;;;;;;493914;238;27521;-73
2024/02/14 06:48:01;;;;;;;4.43;3.92;;;6.20;99.90;;;;;;493916;237;27465;-71
2024/02/14 06:50:03;;;;;;;8.15;3.90;;;6.20;99.90;;;;;;493961;237;27473;-71
2024/02/14 06:52:04;;;;;;;7.90;4.55;;;6.20;99.90;;;;;;493967;237;27512;-72
2024/02/14 06:54:05;;;;;;;8.55;4.05;;;6.20;99.90;;;;;;493899;241;27459;-71
2024/02/14 06:56:06;;;;;;;7.65;4.50;;;6.20;99.90;;;;;;493856;241;28010;-72
2024/02/14 06:58:08;;;;;;;14.15;4.90;;;6.30;99.90;;;;;;493948;241;28087;-73
2024/02/14 07:00:09;;;;;;;9.65;4.50;;;6.20;99.90;;;;;;494001;241;27485;-72
2024/02/14 07:02:10;;;;;;;5.95;3.70;;;6.20;99.90;;;;;;493974;241;27490;-72
2024/02/14 07:04:11;;;;;;;10.27;4.90;;;6.30;99.90;;;;;;493959;241;27597;-71
2024/02/14 07:06:13;;;;;;;10.43;4.70;;;6.20;99.90;;;;;;493915;241;27505;-72
2024/02/14 07:08:14;;;;;;;11.77;5.12;;;6.30;99.90;;;;;;493983;241;29240;-72
2024/02/14 07:10:15;;;;;;;10.23;4.60;;;6.30;99.90;;;;;;493967;237;28048;-71
2024/02/14 07:12:16;;;;;;;10.37;4.50;;;6.30;99.90;;;;;;493924;241;29120;-71
2024/02/14 07:14:18;;;;;;;6.90;4.82;;;6.30;99.90;;;;;;493936;241;28438;-72
2024/02/14 07:16:19;;;;;;;12.73;5.18;;;6.30;99.90;;;;;;493958;241;27525;-72
2024/02/14 07:18:20;;;;;;;9.07;5.20;;;6.30;99.90;;;;;;493987;241;27621;-72
2024/02/14 07:20:21;;;;;;;4.50;4.00;;;6.30;99.90;;;;;;493971;241;28605;-71
2024/02/14 07:22:23;;;;;;;8.30;4.50;;;6.30;99.90;;;;;;493965;241;27912;-72
2024/02/14 07:24:24;;;;;;;9.30;5.20;;;6.30;99.90;;;;;;494025;237;28161;-72
2024/02/14 07:26:25;;;;;;;10.40;5.10;;;6.30;99.90;;;;;;493935;241;28170;-71
2024/02/14 07:28:26;;;;;;;9.90;5.20;;;6.30;99.90;;;;;;493950;237;28081;-71
2024/02/14 07:30:28;;;;;;;6.40;4.70;;;6.30;99.90;;;;;;493966;241;29308;-71
2024/02/14 07:32:29;;;;;;;6.32;4.47;;;6.30;99.90;;;;;;493938;241;29436;-72
2024/02/14 07:34:30;;;;;;;9.35;4.30;;;6.40;99.90;;;;;;493868;241;27540;-74
2024/02/14 07:36:31;;;;;;;9.25;5.37;;;6.40;99.90;;;;;;493913;241;27584;-72
2024/02/14 07:38:33;;;;;;;12.45;5.70;;;6.40;99.90;;;;;;493957;241;27514;-72
2024/02/14 07:40:34;;;;;;;8.77;6.00;;;6.40;99.90;;;;;;493922;241;27639;-72
2024/02/14 07:42:35;;;;;;;14.03;5.80;;;6.40;99.90;;;;;;493962;241;28967;-71
2024/02/14 07:44:36;;;;;;;10.02;5.18;;;6.40;99.90;;;;;;493953;241;28878;-73
2024/02/14 07:46:38;;;;;;;14.98;5.50;;;6.40;99.90;;;;;;493870;237;27979;-71
2024/02/14 07:48:40;;;;;;;10.90;4.95;;;6.50;99.90;;;;;;493900;241;27545;-72
2024/02/14 07:50:40;;;;;;;11.00;5.87;;;6.50;99.90;;;;;;493922;241;27493;-71
2024/02/14 07:52:42;;;;;;;15.70;5.10;;;6.50;99.90;;;;;;493885;241;28890;-71
2024/02/14 07:54:43;;;;;;;10.10;5.40;;;6.50;99.90;;;;;;493954;241;27946;-72
2024/02/14 07:56:44;;;;;;;7.70;5.13;;;6.50;99.90;;;;;;493917;241;28012;-72
2024/02/14 07:58:45;;;;;;;14.33;5.47;;;6.60;99.90;;;;;;493925;241;27839;-72
2024/02/14 08:00:46;;;;;;;8.18;4.90;;;6.60;99.90;;;;;;493987;241;27764;-74
2024/02/14 08:02:48;;;;;;;11.57;5.53;;;6.60;99.90;;;;;;493958;241;28006;-71
2024/02/14 08:04:49;;;;;;;9.67;5.40;;;6.60;99.90;;;;;;493888;241;29449;-72
2024/02/14 08:06:50;;;;;;;9.45;6.15;;;6.60;99.90;;;;;;493878;241;28837;-71
2024/02/14 08:08:57;;;;;;;9.17;5.80;;;6.60;99.90;;;;;;493925;241;27611;-71
2024/02/14 08:10:53;;;;;;;11.03;5.43;;;6.60;99.90;;;;;;493556;241;27655;-73
2024/02/14 08:12:54;;;;;;;9.60;5.33;;;6.60;99.90;;;;;;493959;241;28252;-71
2024/02/14 08:14:55;;;;;;;8.77;5.35;;;6.60;99.90;;;;;;493956;241;27940;-72
2024/02/14 08:16:57;;;;;;;10.37;5.30;;;6.70;99.90;;;;;;493913;241;27538;-71
2024/02/14 08:19:01;;;;;;;8.43;4.97;;;6.70;99.90;;;;;;493969;241;28046;-71
2024/02/14 08:20:59;;;;;;;13.43;5.20;;;6.70;99.90;;;;;;493813;237;27978;-72
2024/02/14 08:23:00;;;;;;;8.30;4.70;;;6.80;99.90;;;;;;493926;241;28486;-71
2024/02/14 08:25:02;;;;;;;7.33;4.63;;;6.80;99.90;;;;;;493930;241;28078;-72
2024/02/14 08:27:06;;;;;;;7.33;4.77;;;6.80;99.90;;;;;;493914;241;28561;-70
2024/02/14 08:29:04;;;;;;;7.80;4.83;;;6.80;99.90;;;;;;493712;241;28591;-70
2024/02/14 08:31:05;;;;;;;7.40;4.53;;;6.80;99.90;;;;;;493986;241;28447;-72
2024/02/14 08:33:07;;;;;;;5.97;3.70;;;6.90;99.90;;;;;;493980;241;27945;-72
2024/02/14 08:35:09;;;;;;;6.10;4.43;;;7.00;99.90;;;;;;493950;241;28015;-72
2024/02/14 08:37:10;;;;;;;4.80;4.20;;;7.00;99.90;;;;;;493840;241;28087;-74
2024/02/14 08:39:10;;;;;;;9.53;4.90;;;7.00;99.90;;;;;;493911;241;28005;-72
2024/02/14 08:41:11;;;;;;;5.70;3.87;;;7.00;99.90;;;;;;493958;241;27922;-72
2024/02/14 08:43:13;;;;;;;10.40;4.37;;;7.00;99.90;;;;;;493964;241;27811;-72
2024/02/14 08:45:14;;;;;;;15.27;5.70;;;7.00;99.90;;;;;;493918;241;27961;-72
2024/02/14 08:47:15;;;;;;;7.33;4.23;;;6.90;99.90;;;;;;493980;241;27771;-73
2024/02/14 08:49:16;;;;;;;8.10;4.83;;;6.90;99.90;;;;;;493982;241;28041;-72
2024/02/14 08:51:21;;;;;;;5.63;4.30;;;6.90;99.90;;;;;;493960;241;27979;-72
2024/02/14 08:53:22;;;;;;;12.40;5.27;;;6.90;99.90;;;;;;493958;241;28086;-72
2024/02/14 08:55:23;;;;;;;10.83;5.87;;;7.00;99.90;;;;;;494011;241;28275;-72
2024/02/14 08:57:26;;;;;;;10.37;5.13;;;7.00;99.90;;;;;;493989;241;27839;-72
2024/02/14 08:59:26;;;;;;;11.93;5.60;;;7.00;99.90;;;;;;493939;239;27864;-72
2024/02/14 09:01:27;;;;;;;9.93;5.00;;;7.00;99.90;;;;;;493985;241;27529;-72
2024/02/14 09:03:30;;;;;;;11.87;6.40;;;7.00;99.90;;;;;;493936;241;28068;-72
2024/02/14 09:05:30;;;;;;;10.83;5.90;;;7.10;99.90;;;;;;493836;241;27991;-74
2024/02/14 09:07:32;;;;;;;10.10;5.20;;;7.10;99.90;;;;;;493923;241;28026;-72
2024/02/14 09:09:32;;;;;;;8.43;5.93;;;7.10;99.90;;;;;;493865;241;28065;-72
2024/02/14 09:11:33;;;;;;;6.33;5.40;;;7.20;99.90;;;;;;493812;241;27934;-73
2024/02/14 09:13:35;;;;;;;6.23;4.30;;;7.20;99.90;;;;;;493976;241;28060;-72
2024/02/14 09:15:36;;;;;;;8.77;5.63;;;7.20;99.90;;;;;;493981;237;27980;-73
2024/02/14 09:17:38;;;;;;;12.40;5.30;;;7.30;99.90;;;;;;493956;241;27823;-72
2024/02/14 09:19:38;;;;;;;5.80;4.70;;;7.30;99.90;;;;;;493935;241;28468;-72
2024/02/14 09:21:40;;;;;;;8.20;5.17;;;7.30;99.90;;;;;;493974;241;29010;-72
2024/02/14 09:23:41;;;;;;;10.93;5.30;;;7.40;99.90;;;;;;494011;241;28267;-72
2024/02/14 09:25:42;;;;;;;11.13;5.43;;;7.40;99.90;;;;;;494013;241;28591;-74
2024/02/14 09:27:44;;;;;;;7.33;5.60;;;7.40;99.90;;;;;;493970;241;28033;-74
2024/02/14 09:29:45;;;;;;;7.33;5.20;;;7.50;99.90;;;;;;493947;241;28013;-72
2024/02/14 09:31:48;;;;;;;11.50;5.10;;;7.50;99.90;;;;;;494028;241;27948;-72
2024/02/14 09:33:47;;;;;;;11.13;4.90;;;7.50;99.90;;;;;;493796;241;27993;-72
2024/02/14 09:35:50;;;;;;;11.33;5.20;;;7.60;99.90;;;;;;493823;241;27843;-74
2024/02/14 09:37:50;;;;;;;10.63;5.40;;;7.60;99.90;;;;;;493769;241;28103;-72
2024/02/14 09:39:51;;;;;;;10.37;5.23;;;7.60;99.90;;;;;;493924;241;27967;-73
2024/02/14 09:41:54;;;;;;;11.60;5.20;;;7.60;99.90;;;;;;494000;241;27932;-74
2024/02/14 09:43:54;;;;;;;7.97;4.67;;;7.70;99.90;;;;;;493868;241;27564;-73
2024/02/14 09:45:55;;;;;;;5.97;4.93;;;7.70;99.90;;;;;;493932;241;28299;-72
2024/02/14 09:47:56;;;;;;;7.90;4.83;;;7.70;99.90;;;;;;493735;237;27923;-72
2024/02/14 09:49:57;;;;;;;4.83;4.33;;;7.70;99.90;;;;;;493964;241;28516;-72
2024/02/14 09:51:58;;;;;;;10.73;4.70;;;7.70;99.90;;;;;;493959;237;28544;-73
2024/02/14 09:54:00;;;;;;;10.00;5.17;;;7.70;99.90;;;;;;493981;241;28401;-72
2024/02/14 09:56:01;;;;;;;8.17;4.40;;;7.70;99.90;;;;;;493766;241;27960;-72
2024/02/14 09:58:05;;;;;;;9.13;5.83;;;7.70;99.90;;;;;;493915;241;27636;-72
2024/02/14 10:00:03;;;;;;;14.03;4.93;;;7.80;99.90;;;;;;493777;241;28018;-72
2024/02/14 10:02:05;;;;;;;8.20;4.90;;;7.80;99.90;;;;;;493989;241;27951;-73
2024/02/14 10:09:22;;;;;;;14.00;5.37;;;7.90;99.90;;;;;;493950;241;28013;-72
2024/02/14 10:11:27;;;;;;;8.60;5.23;;;7.90;99.90;;;;;;493985;241;27977;-72
2024/02/14 10:13:25;;;;;;;9.80;5.50;;;7.90;99.90;;;;;;493677;241;27849;-73
2024/02/14 10:15:26;;;;;;;11.90;5.13;;;7.90;99.90;;;;;;493968;241;27577;-72
2024/02/14 10:17:27;;;;;;;6.57;4.63;;;7.80;99.90;;;;;;493909;241;28000;-72
2024/02/14 10:19:28;;;;;;;5.73;4.50;;;7.80;99.90;;;;;;493781;241;28026;-72
2024/02/14 10:21:33;;;;;;;6.80;4.60;;;7.80;99.90;;;;;;493951;241;27940;-72
2024/02/14 10:23:32;;;;;;;8.57;4.67;;;7.90;99.90;;;;;;493588;241;28162;-72
2024/02/14 10:25:32;;;;;;;6.27;4.80;;;7.80;99.90;;;;;;493887;241;28094;-72
2024/02/14 10:27:33;;;;;;;10.37;5.10;;;7.90;99.90;;;;;;493886;241;28544;-72
2024/02/14 10:29:35;;;;;;;9.60;4.80;;;7.90;99.90;;;;;;494006;237;28500;-74
2024/02/14 10:31:36;;;;;;;10.77;5.33;;;7.90;99.90;;;;;;493948;241;28374;-72
2024/02/14 10:33:38;;;;;;;9.33;5.40;;;8.00;99.90;;;;;;493891;241;27825;-73
2024/02/14 10:35:41;;;;;;;8.70;5.37;;;8.00;99.90;;;;;;493879;241;27975;-72
2024/02/14 10:37:40;;;;;;;7.83;5.40;;;8.00;99.90;;;;;;493743;237;28044;-72
2024/02/14 10:39:41;;;;;;;6.53;5.13;;;8.00;99.90;;;;;;493985;241;27865;-74
2024/02/14 10:41:42;;;;;;;7.33;4.77;;;8.10;99.90;;;;;;493972;241;27793;-72
2024/02/14 10:43:47;;;;;;;10.13;4.90;;;8.10;99.90;;;;;;493928;241;27951;-73